Terminal Aerodrome Forecast
Issued by NWS

Home | Current Version | Previous Version | Text Only | Print | Product List | Glossary On
Versions: 1 2 3 4 5 6 7 8 9 10 11 12 13 14 15 16 17 18 19 20 21 22 23 24 25 26
000
FTUS46 KSGX 101700
TAFSAN
TAF
KSAN 101725Z 1018/1124 29011KT P6SM FEW023
     FM110300 VRB06KT P6SM SCT016
     FM110400 VRB04KT P6SM OVC016
     FM111500 VRB04KT P6SM BKN020
     FM111700 26004KT P6SM SCT023
     FM111800 29011KT P6SM FEW023=

USA.gov is the U.S. government's official web portal to all federal, state and local government web resources and services.